Etusivu
METAR-TAF:

METAR-TAF

Lentoasemat :

Merrill Municipal Airport

Merrill, Wisconsin, Yhdysvallat

Leveyspiiri: 45-11N, Pituuspiiri: 089-42W, korkeus merenpinnasta: 401 m

Tämänhetkinen sää

Tämä raportti tehtiin 11 minuuttia sitten, kello 16.15 UTC
Tuuli 11 kn lännestä puuskistuen 15 kn:hen
Lämpötila 5°C
Kosteus 70%
Ilmanpaine 1016 hPa
Näkyvyys: 16.1 km
Hajonneita pilviä 1900 ft:n korkeudessa

METAR: KRRL 141615Z AUTO 26011G15KT 10SM BKN019 05/00 A2999 RMK AO2 T00530000 TSNO

Aika: 11:26 (16:26 UTC)


TAF: puuttuu

Säähavainnot ja -ennusteet yli 4000 lentoasemalta (METAR- ja TAF-raportit).

Käytössä olevat sääasemat on merkitty karttaan keltaisilla ja punaisilla pisteillä.

Aseta hiiri pisteen päälle nähdäksesi sääaseman nimen.

Klikkaa sitten nähdäksesi säähavainnot ja -ennusteet.

Kartan vaihtaminen: klikkaa mustalla rastilla varustettuja vihreitä pisteitä, niin voit zoomata sisään; viivalla varustettua vihreää pistettä, niin voit zoomata ulos tai vihreitä nuolia, niin pääset viereisille kartoille.


METAR-TAF: